createdAt,value
2022-08-28T00:02:10.142Z,98398.41
2022-08-28T00:06:12.794Z,98398.31
2022-08-28T00:10:17.659Z,98394.34
2022-08-28T00:14:21.145Z,98388.50
2022-08-28T00:18:23.350Z,98396.41
2022-08-28T00:22:25.732Z,98398.47
2022-08-28T00:26:46.544Z,98405.13
2022-08-28T00:30:51.642Z,98402.13
2022-08-28T00:34:53.928Z,98408.44
2022-08-28T00:38:59.983Z,98411.44
2022-08-28T00:43:04.090Z,98406.09
2022-08-28T00:47:06.531Z,98416.91
2022-08-28T00:51:27.842Z,98415.50
2022-08-28T00:55:30.445Z,98410.81
2022-08-28T00:59:33.390Z,98428.25
2022-08-28T01:03:37.153Z,98419.09
2022-08-28T01:07:39.665Z,98423.69
2022-08-28T01:11:44.446Z,98431.34
2022-08-28T01:15:47.764Z,98423.84
2022-08-28T01:19:58.445Z,98423.63
2022-08-28T01:24:04.869Z,98421.72
2022-08-28T01:28:12.425Z,98423.25
2022-08-28T01:32:27.979Z,98418.66
2022-08-28T01:36:30.805Z,98406.94
2022-08-28T01:40:37.649Z,98407.25
2022-08-28T01:44:39.805Z,98402.34
2022-08-28T01:48:43.941Z,98395.88
2022-08-28T01:52:46.308Z,98389.59
2022-08-28T01:56:48.454Z,98383.84
2022-08-28T02:00:51.305Z,98375.63
2022-08-28T02:04:53.927Z,98370.41
2022-08-28T02:08:56.217Z,98376.16
2022-08-28T02:13:03.602Z,98372.31
2022-08-28T02:17:07.315Z,98374.19
2022-08-28T02:21:10.102Z,98365.81
2022-08-28T02:25:13.968Z,98366.69
2022-08-28T02:29:15.962Z,98360.34
2022-08-28T02:33:18.828Z,98364.09
2022-08-28T02:37:21.831Z,98369.53
2022-08-28T02:41:24.322Z,98366.59
2022-08-28T02:45:26.353Z,98351.47
2022-08-28T02:49:31.257Z,98359.66
2022-08-28T02:53:39.503Z,98354.31
2022-08-28T02:57:42.871Z,98351.31
2022-08-28T03:01:45.454Z,98350.72
2022-08-28T03:05:47.539Z,98340.75
2022-08-28T03:09:50.293Z,98345.84
2022-08-28T03:13:52.840Z,98355.81
2022-08-28T03:17:54.970Z,98354.88
2022-08-28T03:21:57.091Z,98361.53
2022-08-28T03:26:03.601Z,98357.44
2022-08-28T03:30:08.000Z,98359.84
2022-08-28T03:34:09.960Z,98360.50
2022-08-28T03:38:12.546Z,98349.75
2022-08-28T03:42:15.247Z,98357.94
2022-08-28T03:46:20.670Z,98354.94
2022-08-28T03:50:22.922Z,98357.31
2022-08-28T03:54:26.761Z,98360.19
2022-08-28T03:58:29.683Z,98360.22
2022-08-28T04:02:31.697Z,98361.03
2022-08-28T04:06:33.774Z,98355.38
2022-08-28T04:10:38.329Z,98368.53
2022-08-28T04:14:40.537Z,98367.16
2022-08-28T04:18:43.483Z,98366.25
2022-08-28T04:22:45.477Z,98380.34
2022-08-28T04:26:47.571Z,98384.06
2022-08-28T04:30:54.488Z,98375.66
2022-08-28T04:34:56.548Z,98372.09
2022-08-28T04:38:58.872Z,98366.31
2022-08-28T04:43:00.877Z,98364.91
2022-08-28T04:47:02.922Z,98373.97
2022-08-28T04:51:10.677Z,98379.72
2022-08-28T04:55:12.841Z,98389.72
2022-08-28T04:59:14.955Z,98398.34
2022-08-28T05:03:18.196Z,98420.28
2022-08-28T05:07:20.336Z,98418.53
2022-08-28T05:11:33.475Z,98422.56
2022-08-28T05:15:51.830Z,98418.75
2022-08-28T05:19:54.371Z,98420.31
2022-08-28T05:23:57.904Z,98422.28
2022-08-28T05:28:00.377Z,98419.38
2022-08-28T05:32:04.212Z,98412.25
2022-08-28T05:36:07.851Z,98420.84
2022-08-28T05:40:10.830Z,98422.84
2022-08-28T05:44:15.437Z,98421.72
2022-08-28T05:48:17.492Z,98428.72
2022-08-28T05:52:19.723Z,98434.81
2022-08-28T05:56:25.486Z,98439.00
2022-08-28T06:00:27.506Z,98438.69
2022-08-28T06:04:30.124Z,98444.25
2022-08-28T06:08:33.229Z,98443.13
2022-08-28T06:12:35.450Z,98443.53
2022-08-28T06:16:40.196Z,98436.81
2022-08-28T06:20:45.146Z,98417.06
2022-08-28T06:24:47.223Z,98420.75
2022-08-28T06:28:49.668Z,98415.09
2022-08-28T06:32:51.816Z,98409.38
2022-08-28T06:36:55.072Z,98409.03
2022-08-28T06:40:57.763Z,98393.59
2022-08-28T06:44:59.815Z,98408.25
2022-08-28T06:49:03.935Z,98418.69
2022-08-28T06:53:07.191Z,98407.25
2022-08-28T06:57:10.079Z,98413.59
2022-08-28T07:01:26.493Z,98416.22
2022-08-28T07:05:28.662Z,98405.06
2022-08-28T07:09:30.950Z,98416.53
2022-08-28T07:13:36.640Z,98422.03
2022-08-28T07:17:39.791Z,98421.59
2022-08-28T07:21:44.311Z,98422.28
2022-08-28T07:25:46.539Z,98420.59
2022-08-28T07:29:49.284Z,98423.66
2022-08-28T07:33:54.142Z,98433.66
2022-08-28T07:37:57.525Z,98434.16
2022-08-28T07:41:59.767Z,98434.25
2022-08-28T07:46:07.073Z,98437.50
2022-08-28T07:50:09.770Z,98437.03
2022-08-28T07:54:17.745Z,98437.06
2022-08-28T07:58:20.825Z,98424.44
2022-08-28T08:02:22.935Z,98432.97
2022-08-28T08:06:33.855Z,98430.53
2022-08-28T08:10:39.402Z,98434.88
2022-08-28T08:14:44.196Z,98434.75
2022-08-28T08:18:48.698Z,98429.31
2022-08-28T08:22:50.826Z,98423.34
2022-08-28T08:27:00.366Z,98418.16
2022-08-28T08:31:20.249Z,98416.66
2022-08-28T08:35:22.415Z,98425.94
2022-08-28T08:39:24.413Z,98419.56
2022-08-28T08:43:30.230Z,98428.72
2022-08-28T08:47:51.536Z,98429.88
2022-08-28T08:52:21.638Z,98427.72
2022-08-28T08:56:34.604Z,98425.31
2022-08-28T09:01:01.147Z,98425.44
2022-08-28T09:05:12.630Z,98431.47
2022-08-28T09:09:21.546Z,98439.22
2022-08-28T09:13:38.719Z,98441.72
2022-08-28T09:18:26.707Z,98444.16
2022-08-28T09:22:30.189Z,98447.53
2022-08-28T09:26:32.215Z,98444.34
2022-08-28T09:30:35.900Z,98441.28
2022-08-28T09:34:39.307Z,98437.75
2022-08-28T09:38:41.695Z,98429.75
2022-08-28T09:43:23.617Z,98432.28
2022-08-28T09:47:46.211Z,98426.97
2022-08-28T09:51:48.996Z,98420.94
2022-08-28T09:56:11.114Z,98423.31
2022-08-28T10:00:14.929Z,98418.00
2022-08-28T10:04:35.983Z,98423.81
2022-08-28T10:08:57.527Z,98419.78
2022-08-28T10:13:20.570Z,98413.31
2022-08-28T10:17:42.040Z,98416.34
2022-08-28T10:21:51.223Z,98422.34
2022-08-28T10:26:16.656Z,98423.13
2022-08-28T10:30:24.415Z,98417.31
2022-08-28T10:35:15.330Z,98421.72
2022-08-28T10:39:32.687Z,98421.56
2022-08-28T10:43:43.337Z,98421.19
2022-08-28T10:47:51.891Z,98421.66
2022-08-28T10:52:09.047Z,98413.88
2022-08-28T10:56:17.578Z,98411.25
2022-08-28T11:00:23.106Z,98408.81
2022-08-28T11:04:29.353Z,98398.34
2022-08-28T11:08:44.433Z,98400.78
2022-08-28T11:12:52.218Z,98394.50
2022-08-28T11:16:59.207Z,98388.75
2022-08-28T11:21:27.678Z,98386.41
2022-08-28T11:25:48.411Z,98374.41
2022-08-28T11:30:08.839Z,98372.53
2022-08-28T11:34:49.182Z,98375.06
2022-08-28T11:38:52.027Z,98366.66
2022-08-28T11:43:17.067Z,98367.34
2022-08-28T11:47:41.947Z,98359.63
2022-08-28T11:51:50.757Z,98348.06
2022-08-28T11:56:14.062Z,98347.72
2022-08-28T12:00:51.758Z,98344.94
2022-08-28T12:04:53.946Z,98341.09
2022-08-28T12:08:58.938Z,98337.75
2022-08-28T12:13:02.865Z,98333.09
2022-08-28T12:17:26.856Z,98322.50
2022-08-28T12:21:38.737Z,98313.91
2022-08-28T12:25:44.225Z,98318.25
2022-08-28T12:29:55.535Z,98310.84
2022-08-28T12:34:04.229Z,98296.38
2022-08-28T12:38:09.411Z,98289.38
2022-08-28T12:42:24.401Z,98294.81
2022-08-28T12:46:40.910Z,98304.25
2022-08-28T12:50:43.582Z,98321.13
2022-08-28T12:54:46.870Z,98325.03
2022-08-28T12:58:49.552Z,98323.09
2022-08-28T13:02:54.602Z,98315.63
2022-08-28T13:07:17.601Z,98310.50
2022-08-28T13:11:21.386Z,98299.50
2022-08-28T13:15:42.527Z,98308.94
2022-08-28T13:19:45.321Z,98319.53
2022-08-28T13:23:54.249Z,98309.38
2022-08-28T13:28:03.154Z,98315.25
2022-08-28T13:32:08.453Z,98310.53
2022-08-28T13:36:21.947Z,98311.31
2022-08-28T13:44:56.929Z,98301.81
2022-08-28T13:48:58.990Z,98297.78
2022-08-28T13:53:01.754Z,98294.72
2022-08-28T13:57:05.717Z,98290.03
2022-08-28T14:01:08.084Z,98299.19
2022-08-28T14:05:10.556Z,98301.44
2022-08-28T14:09:15.482Z,98314.16
2022-08-28T14:13:20.340Z,98308.47
2022-08-28T14:17:22.616Z,98308.03
2022-08-28T14:21:26.918Z,98314.47
2022-08-28T14:25:29.042Z,98343.19
2022-08-28T14:29:31.909Z,98374.31
2022-08-28T14:33:37.020Z,98390.69
2022-08-28T14:37:39.225Z,98390.13
2022-08-28T14:41:46.927Z,98383.91
2022-08-28T14:45:50.523Z,98377.88
2022-08-28T14:49:52.528Z,98377.75
2022-08-28T14:53:54.799Z,98389.34
2022-08-28T14:57:57.123Z,98394.47
2022-08-28T15:02:00.630Z,98384.97
2022-08-28T15:06:04.407Z,98398.28
2022-08-28T15:10:06.805Z,98391.13
2022-08-28T15:14:11.103Z,98396.16
2022-08-28T15:18:13.361Z,98406.34
2022-08-28T15:22:15.458Z,98412.75
2022-08-28T15:26:31.393Z,98420.22
2022-08-28T15:30:33.655Z,98409.94
2022-08-28T15:34:35.817Z,98427.81
2022-08-28T15:38:56.710Z,98424.06
2022-08-28T15:43:00.292Z,98416.13
2022-08-28T15:47:03.219Z,98413.59
2022-08-28T15:51:05.303Z,98440.53
2022-08-28T15:55:07.992Z,98456.19
2022-08-28T15:59:11.454Z,98476.03
2022-08-28T16:03:14.086Z,98474.84
2022-08-28T16:07:17.337Z,98495.59
2022-08-28T16:11:23.052Z,98495.56
2022-08-28T16:15:26.313Z,98502.16
2022-08-28T16:19:28.766Z,98494.66
2022-08-28T16:23:31.018Z,98490.69
2022-08-28T16:27:33.341Z,98473.22
2022-08-28T16:31:35.457Z,98474.34
2022-08-28T16:35:49.215Z,98478.44
2022-08-28T16:39:57.373Z,98467.22
2022-08-28T16:43:59.855Z,98458.69
2022-08-28T16:48:04.074Z,98462.81
2022-08-28T16:52:06.159Z,98467.16
2022-08-28T16:56:13.123Z,98468.00
2022-08-28T17:00:15.384Z,98482.09
2022-08-28T17:04:17.890Z,98487.97
2022-08-28T17:08:20.008Z,98483.22
2022-08-28T17:12:22.216Z,98478.03
2022-08-28T17:16:25.742Z,98479.41
2022-08-28T17:20:46.510Z,98478.25
2022-08-28T17:24:48.698Z,98476.53
2022-08-28T17:28:54.900Z,98481.50
2022-08-28T17:32:57.212Z,98470.00
2022-08-28T17:36:59.460Z,98473.91
2022-08-28T17:41:06.585Z,98473.28
2022-08-28T17:45:11.872Z,98474.34
2022-08-28T17:49:15.464Z,98478.56
2022-08-28T17:53:18.914Z,98494.69
2022-08-28T17:57:20.918Z,98483.41
2022-08-28T18:01:25.665Z,98486.44
2022-08-28T18:05:27.765Z,98479.41
2022-08-28T18:09:29.954Z,98502.88
2022-08-28T18:13:33.446Z,98494.63
2022-08-28T18:17:39.276Z,98492.84
2022-08-28T18:21:41.655Z,98498.25
2022-08-28T18:25:50.996Z,98501.03
2022-08-28T18:29:55.226Z,98504.81
2022-08-28T18:33:58.147Z,98504.13
2022-08-28T18:38:02.877Z,98508.88
2022-08-28T18:42:05.403Z,98519.44
2022-08-28T18:46:14.180Z,98533.75
2022-08-28T18:50:16.647Z,98550.16
2022-08-28T18:54:20.531Z,98558.72
2022-08-28T18:58:23.728Z,98567.78
2022-08-28T19:02:27.792Z,98574.78
2022-08-28T19:06:30.092Z,98583.03
2022-08-28T19:10:34.782Z,98582.38
2022-08-28T19:14:38.028Z,98584.13
2022-08-28T19:18:40.272Z,98583.66
2022-08-28T19:22:43.154Z,98583.97
2022-08-28T19:26:46.310Z,98575.72
2022-08-28T19:30:48.521Z,98564.91
2022-08-28T19:34:50.855Z,98567.16
2022-08-28T19:38:55.441Z,98578.09
2022-08-28T19:42:57.581Z,98582.06
2022-08-28T19:46:59.776Z,98586.50
2022-08-28T19:51:17.338Z,98595.38
2022-08-28T19:55:27.497Z,98599.03
2022-08-28T19:59:29.586Z,98596.97
2022-08-28T20:03:31.895Z,98593.97
2022-08-28T20:07:33.951Z,98598.88
2022-08-28T20:11:36.049Z,98595.09
2022-08-28T20:15:41.984Z,98606.66
2022-08-28T20:19:46.456Z,98604.09
2022-08-28T20:23:48.634Z,98615.69
2022-08-28T20:27:51.675Z,98613.16
2022-08-28T20:31:54.234Z,98612.31
2022-08-28T20:36:01.347Z,98616.22
2022-08-28T20:40:09.836Z,98611.09
2022-08-28T20:44:15.592Z,98621.56
2022-08-28T20:48:17.684Z,98625.13
2022-08-28T20:52:22.096Z,98636.72
2022-08-28T20:56:27.235Z,98638.50
2022-08-28T21:00:29.611Z,98632.03
2022-08-28T21:04:38.803Z,98617.88
2022-08-28T21:08:42.403Z,98636.75
2022-08-28T21:12:44.549Z,98635.66
2022-08-28T21:16:46.900Z,98622.00
2022-08-28T21:20:49.213Z,98627.34
2022-08-28T21:24:52.158Z,98624.03
2022-08-28T21:28:54.820Z,98614.09
2022-08-28T21:32:59.512Z,98612.34
2022-08-28T21:37:04.061Z,98618.28
2022-08-28T21:41:13.544Z,98620.63
2022-08-28T21:45:15.607Z,98627.50
2022-08-28T21:49:20.125Z,98634.22
2022-08-28T21:53:28.466Z,98642.13
2022-08-28T21:57:31.358Z,98646.09
2022-08-28T22:01:33.899Z,98648.81
2022-08-28T22:05:36.245Z,98644.13
2022-08-28T22:09:38.748Z,98640.34
2022-08-28T22:13:40.926Z,98651.47
2022-08-28T22:17:43.570Z,98658.97
2022-08-28T22:22:06.966Z,98652.63
2022-08-28T22:26:14.671Z,98646.56
2022-08-28T22:30:18.084Z,98644.38
2022-08-28T22:34:20.907Z,98645.16
2022-08-28T22:38:24.700Z,98653.03
2022-08-28T22:42:27.151Z,98649.78
2022-08-28T22:46:29.307Z,98651.28
2022-08-28T22:50:31.669Z,98663.00
2022-08-28T22:54:34.477Z,98660.31
2022-08-28T22:58:36.764Z,98654.94
2022-08-28T23:02:40.351Z,98656.84
2022-08-28T23:06:42.465Z,98658.22
2022-08-28T23:10:58.501Z,98661.03
2022-08-28T23:15:04.466Z,98656.72
2022-08-28T23:19:08.872Z,98657.91
2022-08-28T23:23:12.003Z,98652.28
2022-08-28T23:27:35.465Z,98655.16
2022-08-28T23:31:37.281Z,98655.16
2022-08-28T23:35:39.759Z,98650.38
2022-08-28T23:39:42.315Z,98648.63
2022-08-28T23:43:44.587Z,98640.00
2022-08-28T23:47:47.421Z,98640.09
2022-08-28T23:51:49.631Z,98636.28
2022-08-28T23:55:54.342Z,98637.72
2022-08-28T23:59:57.299Z,98647.84
